Time;durP1;ratioP1;P1;durP2;ratioP2;P2;SDS_P1;SDS_P2;PMS_P1;PMS_P2;Temp;Humidity;BMP_temperature;BMP_pressure;BME280_temperature;BME280_humidity;BME280_pressure;Samples;Min_cycle;Max_cycle;Signal;HPM_P1;HPM_P2
2022/07/30 00:00:00;;;;;;;0.10;0.10;;;17.70;99.90;;;;;;5029485;28;20493;-93
2022/07/30 00:02:26;;;;;;;0.10;0.10;;;17.60;99.90;;;;;;5030994;28;20200;-93
2022/07/30 00:04:51;;;;;;;0.10;0.10;;;17.60;99.90;;;;;;5009931;28;20248;-93
2022/07/30 00:07:17;;;;;;;0.10;0.10;;;17.60;99.90;;;;;;5013707;28;20195;-94
2022/07/30 00:09:42;;;;;;;0.10;0.10;;;17.50;99.90;;;;;;5021918;28;20678;-93
2022/07/30 00:12:08;;;;;;;0.10;0.10;;;17.50;99.90;;;;;;5027902;28;20281;-93
2022/07/30 00:14:35;;;;;;;0.10;0.10;;;17.50;99.90;;;;;;5021515;28;20223;-94
2022/07/30 00:17:02;;;;;;;0.10;0.10;;;17.50;99.90;;;;;;5027184;28;20454;-94
2022/07/30 00:19:27;;;;;;;0.10;0.10;;;17.50;99.90;;;;;;5004717;28;21036;-93
2022/07/30 00:21:56;;;;;;;0.10;0.10;;;17.50;99.90;;;;;;5008498;28;20450;-93
2022/07/30 00:24:22;;;;;;;0.10;0.10;;;17.50;99.90;;;;;;5024535;28;20558;-93
2022/07/30 00:26:47;;;;;;;0.10;0.10;;;17.40;99.90;;;;;;5027996;28;20448;-94
2022/07/30 00:29:13;;;;;;;0.10;0.10;;;17.40;99.90;;;;;;5031872;28;20483;-93
2022/07/30 00:31:39;;;;;;;0.10;0.10;;;17.40;99.90;;;;;;5012160;28;20231;-94
2022/07/30 00:34:04;;;;;;;0.10;0.10;;;17.40;99.90;;;;;;5029120;28;20573;-94
2022/07/30 00:36:30;;;;;;;0.10;0.10;;;17.40;99.90;;;;;;5014154;28;20214;-93
2022/07/30 00:38:56;;;;;;;0.10;0.10;;;17.40;99.90;;;;;;5023212;28;20817;-93
2022/07/30 00:41:22;;;;;;;0.10;0.10;;;17.50;99.90;;;;;;5017298;28;20191;-94
2022/07/30 00:43:48;;;;;;;0.10;0.10;;;17.40;99.90;;;;;;5006700;28;20451;-94
2022/07/30 00:46:14;;;;;;;0.10;0.10;;;17.40;99.90;;;;;;5022721;28;20251;-94
2022/07/30 00:48:40;;;;;;;0.10;0.10;;;17.40;99.90;;;;;;5029609;28;20257;-94
2022/07/30 00:51:06;;;;;;;0.10;0.10;;;17.40;99.90;;;;;;5031063;28;20457;-94
2022/07/30 00:53:32;;;;;;;0.10;0.10;;;17.50;99.90;;;;;;5017522;28;21064;-93
2022/07/30 00:55:57;;;;;;;0.10;0.10;;;17.50;99.90;;;;;;4997278;28;20558;-94
2022/07/30 00:58:23;;;;;;;0.10;0.10;;;17.50;99.90;;;;;;5016513;28;20480;-93
2022/07/30 01:00:49;;;;;;;0.10;0.10;;;17.50;99.90;;;;;;5019422;28;20686;-93
2022/07/30 01:03:14;;;;;;;0.10;0.10;;;17.50;99.90;;;;;;5004778;28;20189;-94
2022/07/30 01:05:40;;;;;;;0.10;0.10;;;17.50;99.90;;;;;;5027287;28;20187;-94
2022/07/30 01:08:05;;;;;;;0.10;0.10;;;17.50;99.90;;;;;;5003802;28;20228;-94
2022/07/30 01:10:31;;;;;;;0.10;0.10;;;17.50;99.90;;;;;;5028588;28;20191;-94
2022/07/30 01:12:58;;;;;;;0.10;0.10;;;17.50;99.90;;;;;;5022798;28;20307;-93
2022/07/30 01:15:24;;;;;;;0.10;0.10;;;17.50;99.90;;;;;;5024928;28;20203;-93
2022/07/30 01:17:52;;;;;;;0.10;0.10;;;17.50;99.90;;;;;;5019308;28;20967;-94
2022/07/30 01:20:23;;;;;;;0.10;0.10;;;17.50;99.90;;;;;;5030884;28;20442;-93
2022/07/30 01:22:53;;;;;;;0.10;0.10;;;17.50;99.90;;;;;;5030348;28;20524;-93
2022/07/30 01:25:31;;;;;;;0.10;0.10;;;17.60;99.90;;;;;;5028276;28;20431;-93
2022/07/30 01:28:03;;;;;;;0.10;0.10;;;17.50;99.90;;;;;;5004650;28;22034;-93
2022/07/30 01:30:32;;;;;;;0.10;0.10;;;17.50;99.90;;;;;;5012935;28;22023;-93
2022/07/30 01:32:59;;;;;;;0.10;0.10;;;17.50;99.90;;;;;;5022886;28;20486;-93
2022/07/30 01:35:28;;;;;;;0.10;0.10;;;17.50;99.90;;;;;;5008663;28;20446;-91
2022/07/30 01:37:55;;;;;;;0.10;0.10;;;17.50;99.90;;;;;;5015640;28;20476;-92
2022/07/30 01:40:23;;;;;;;0.10;0.10;;;17.50;99.90;;;;;;5021887;28;20868;-93
2022/07/30 01:42:54;;;;;;;0.10;0.10;;;17.50;99.90;;;;;;5011042;28;20957;-93
2022/07/30 01:45:22;;;;;;;0.10;0.10;;;17.50;99.90;;;;;;4997518;28;20469;-93
2022/07/30 01:47:51;;;;;;;0.10;0.10;;;17.50;99.90;;;;;;5022692;28;20450;-93
2022/07/30 01:50:19;;;;;;;0.10;0.10;;;17.60;99.90;;;;;;5010789;28;21087;-93
2022/07/30 01:52:48;;;;;;;0.10;0.10;;;17.50;99.90;;;;;;5015204;28;20514;-92
2022/07/30 01:55:17;;;;;;;0.10;0.10;;;17.50;99.90;;;;;;5016496;28;20988;-92
2022/07/30 01:57:45;;;;;;;0.10;0.10;;;17.50;99.90;;;;;;5020508;28;20450;-94
2022/07/30 02:00:12;;;;;;;0.10;0.10;;;17.50;99.90;;;;;;5011906;28;20920;-92
2022/07/30 02:02:39;;;;;;;0.10;0.10;;;17.50;99.90;;;;;;5017015;28;20482;-93
2022/07/30 02:05:06;;;;;;;0.10;0.10;;;17.50;99.90;;;;;;5004189;28;20470;-92
2022/07/30 02:07:45;;;;;;;0.10;0.10;;;17.40;99.90;;;;;;5016289;28;20945;-92
2022/07/30 02:10:29;;;;;;;0.10;0.10;;;17.50;99.90;;;;;;5020518;28;20442;-93
2022/07/30 02:12:56;;;;;;;0.10;0.10;;;17.50;99.90;;;;;;5024637;28;20486;-93
2022/07/30 02:15:45;;;;;;;0.10;0.10;;;17.50;99.90;;;;;;5005748;28;20451;-92
2022/07/30 02:18:21;;;;;;;0.10;0.10;;;17.50;99.90;;;;;;5016695;28;20980;-92
2022/07/30 02:20:55;;;;;;;0.10;0.10;;;17.50;99.90;;;;;;5021476;28;20539;-93
2022/07/30 02:23:22;;;;;;;0.10;0.10;;;17.40;99.90;;;;;;5014822;28;20457;-92
2022/07/30 02:25:50;;;;;;;0.10;0.10;;;17.40;99.90;;;;;;5016554;28;20443;-93
2022/07/30 02:28:18;;;;;;;0.10;0.10;;;17.40;99.90;;;;;;4999161;28;20459;-92
2022/07/30 02:30:49;;;;;;;0.10;0.10;;;17.40;99.90;;;;;;5018390;28;20438;-93
2022/07/30 02:33:17;;;;;;;0.10;0.10;;;17.30;99.90;;;;;;5017634;28;20505;-92
2022/07/30 02:35:43;;;;;;;0.10;0.10;;;17.30;99.90;;;;;;5029010;28;20621;-93
2022/07/30 02:38:12;;;;;;;0.10;0.10;;;17.30;99.90;;;;;;5017907;28;20458;-92
2022/07/30 02:40:42;;;;;;;0.10;0.10;;;17.30;99.90;;;;;;5005346;28;20441;-93
2022/07/30 02:43:08;;;;;;;0.10;0.10;;;17.30;99.90;;;;;;5027186;28;20972;-92
2022/07/30 02:45:36;;;;;;;0.10;0.10;;;17.30;99.90;;;;;;5023353;28;21879;-92
2022/07/30 02:48:07;;;;;;;0.10;0.10;;;17.30;99.90;;;;;;5030332;28;20435;-92
2022/07/30 02:50:34;;;;;;;0.10;0.10;;;17.30;99.90;;;;;;5032755;28;20446;-92
2022/07/30 02:53:01;;;;;;;0.10;0.10;;;17.40;99.90;;;;;;5030224;28;20500;-93
2022/07/30 02:55:30;;;;;;;0.10;0.10;;;17.30;99.90;;;;;;5023447;28;20422;-93
2022/07/30 02:57:56;;;;;;;0.10;0.10;;;17.30;99.90;;;;;;5019482;28;20449;-92
2022/07/30 03:00:23;;;;;;;0.10;0.10;;;17.30;99.90;;;;;;4999232;28;20439;-93
2022/07/30 03:02:50;;;;;;;0.10;0.10;;;17.30;99.90;;;;;;5006004;28;20505;-92
2022/07/30 03:05:16;;;;;;;0.10;0.10;;;17.40;99.90;;;;;;4997980;28;20522;-91
2022/07/30 03:07:43;;;;;;;0.10;0.10;;;17.40;99.90;;;;;;4987218;28;21343;-91
2022/07/30 03:10:11;;;;;;;0.10;0.10;;;17.40;99.90;;;;;;4998585;28;20955;-91
2022/07/30 03:12:39;;;;;;;0.10;0.10;;;17.40;99.90;;;;;;4995047;28;20483;-91
2022/07/30 03:15:05;;;;;;;0.10;0.10;;;17.40;99.90;;;;;;5009649;28;20435;-92
2022/07/30 03:17:37;;;;;;;0.10;0.10;;;17.40;99.90;;;;;;4987693;28;20794;-91
2022/07/30 03:20:06;;;;;;;0.10;0.10;;;17.50;99.90;;;;;;4996713;28;20432;-90
2022/07/30 03:22:37;;;;;;;0.10;0.10;;;17.40;99.90;;;;;;4991288;28;20450;-91
2022/07/30 03:25:04;;;;;;;0.10;0.10;;;17.50;99.90;;;;;;4994357;28;20456;-92
2022/07/30 03:27:31;;;;;;;0.10;0.10;;;17.50;99.90;;;;;;4994649;28;20463;-92
2022/07/30 03:29:57;;;;;;;0.10;0.10;;;17.50;99.90;;;;;;5006873;28;20439;-92
2022/07/30 03:32:24;;;;;;;0.10;0.10;;;17.50;99.90;;;;;;4996749;28;20901;-92
2022/07/30 03:34:50;;;;;;;0.10;0.10;;;17.50;99.90;;;;;;5010245;28;20447;-92
2022/07/30 03:37:15;;;;;;;0.10;0.10;;;17.50;99.90;;;;;;4993294;28;20451;-92
2022/07/30 03:39:41;;;;;;;0.10;0.10;;;17.50;99.90;;;;;;5006519;28;21030;-95
2022/07/30 03:42:07;;;;;;;0.10;0.10;;;17.50;99.90;;;;;;5003215;28;20187;-92
2022/07/30 03:44:33;;;;;;;0.10;0.10;;;17.50;99.90;;;;;;4995450;28;20199;-92
2022/07/30 03:47:00;;;;;;;0.10;0.10;;;17.50;99.90;;;;;;4999655;28;20943;-91
2022/07/30 03:49:27;;;;;;;0.10;0.10;;;17.50;99.90;;;;;;5004672;28;20456;-92
2022/07/30 03:51:53;;;;;;;0.10;0.10;;;17.50;99.90;;;;;;4981700;28;20465;-92
2022/07/30 03:54:20;;;;;;;0.10;0.10;;;17.50;99.90;;;;;;5002809;28;21067;-91
2022/07/30 03:56:45;;;;;;;0.10;0.10;;;17.50;99.90;;;;;;4995923;28;20523;-91
2022/07/30 03:59:13;;;;;;;0.10;0.10;;;17.50;99.90;;;;;;4993501;28;20565;-92
2022/07/30 04:01:38;;;;;;;0.10;0.10;;;17.50;99.90;;;;;;4998723;28;20181;-92
2022/07/30 04:04:08;;;;;;;0.10;0.10;;;17.50;99.90;;;;;;5003025;28;20458;-92
2022/07/30 04:06:38;;;;;;;0.10;0.10;;;17.60;99.90;;;;;;5012190;28;20239;-92
2022/07/30 04:09:08;;;;;;;0.10;0.10;;;17.60;99.90;;;;;;4999705;28;20452;-93
2022/07/30 04:11:34;;;;;;;0.10;0.10;;;17.60;99.90;;;;;;5008919;28;22114;-91
2022/07/30 04:13:59;;;;;;;0.10;0.10;;;17.60;99.90;;;;;;4997121;28;20483;-93
2022/07/30 04:16:35;;;;;;;0.10;0.10;;;17.60;99.90;;;;;;4981394;28;20184;-92
2022/07/30 04:19:04;;;;;;;0.10;0.10;;;17.60;99.90;;;;;;4993086;28;20201;-92
2022/07/30 04:21:32;;;;;;;0.10;0.10;;;17.60;99.90;;;;;;5004158;28;20452;-91
2022/07/30 04:24:00;;;;;;;0.10;0.10;;;17.60;99.90;;;;;;5005786;28;20819;-91
2022/07/30 04:26:27;;;;;;;0.10;0.10;;;17.60;99.90;;;;;;5007852;28;20498;-93
2022/07/30 04:28:52;;;;;;;0.10;0.10;;;17.60;99.90;;;;;;4994184;28;20443;-92
2022/07/30 04:31:18;;;;;;;0.10;0.10;;;17.60;99.90;;;;;;4997767;28;20474;-92
2022/07/30 04:33:45;;;;;;;0.10;0.10;;;17.50;99.90;;;;;;5006423;28;20227;-90
2022/07/30 04:36:10;;;;;;;0.10;0.10;;;17.60;99.90;;;;;;5010482;28;20192;-91
2022/07/30 04:38:36;;;;;;;0.10;0.10;;;17.60;99.90;;;;;;5010198;28;21018;-91
2022/07/30 04:41:02;;;;;;;0.10;0.10;;;17.60;99.90;;;;;;5006930;28;20189;-91
2022/07/30 04:43:27;;;;;;;0.10;0.10;;;17.60;99.90;;;;;;4996357;28;20649;-92
2022/07/30 04:45:53;;;;;;;0.10;0.10;;;17.50;99.90;;;;;;4997603;28;20890;-92
2022/07/30 04:48:19;;;;;;;0.10;0.10;;;17.60;99.90;;;;;;4994696;28;20200;-90
2022/07/30 04:50:48;;;;;;;0.10;0.10;;;17.60;99.90;;;;;;5006363;28;20277;-91
2022/07/30 04:53:14;;;;;;;0.10;0.10;;;17.60;99.90;;;;;;5004166;28;20282;-91
2022/07/30 04:55:44;;;;;;;0.10;0.10;;;17.60;99.90;;;;;;5009370;28;20490;-92
2022/07/30 04:58:12;;;;;;;0.10;0.10;;;17.60;99.90;;;;;;5005247;28;20513;-91
2022/07/30 05:00:38;;;;;;;0.10;0.10;;;17.60;99.90;;;;;;5022965;28;20496;-91
2022/07/30 05:03:05;;;;;;;0.10;0.10;;;17.60;99.90;;;;;;4994769;28;20447;-91
2022/07/30 05:05:32;;;;;;;0.10;0.10;;;17.60;99.90;;;;;;5008940;28;20457;-92
2022/07/30 05:07:59;;;;;;;0.10;0.10;;;17.60;99.90;;;;;;5010176;28;20453;-92
2022/07/30 05:10:26;;;;;;;0.10;0.10;;;17.70;99.90;;;;;;5026905;28;20434;-93
2022/07/30 05:12:51;;;;;;;0.10;0.10;;;17.70;99.90;;;;;;5003797;28;20820;-93
2022/07/30 05:15:17;;;;;;;0.10;0.10;;;17.80;99.90;;;;;;5025073;28;20445;-93
2022/07/30 05:17:44;;;;;;;0.10;0.10;;;17.80;99.90;;;;;;5032017;28;20184;-94
2022/07/30 05:20:10;;;;;;;0.10;0.10;;;17.80;99.90;;;;;;5026294;28;20211;-94
2022/07/30 05:22:35;;;;;;;0.10;0.10;;;17.80;99.90;;;;;;5028770;28;20438;-93
2022/07/30 05:25:01;;;;;;;0.10;0.10;;;17.90;99.90;;;;;;5032213;28;20436;-94
2022/07/30 05:27:26;;;;;;;0.10;0.10;;;17.90;99.90;;;;;;5032801;28;20213;-94
2022/07/30 05:29:52;;;;;;;0.10;0.10;;;17.90;99.90;;;;;;5029398;28;20214;-94
2022/07/30 05:32:17;;;;;;;0.10;0.10;;;18.00;99.90;;;;;;5029475;28;20239;-94
2022/07/30 05:34:43;;;;;;;0.10;0.10;;;18.10;99.90;;;;;;5032041;28;20186;-93
2022/07/30 05:37:08;;;;;;;0.10;0.10;;;18.20;99.90;;;;;;5011778;28;20188;-92
2022/07/30 05:39:34;;;;;;;0.10;0.10;;;18.40;99.90;;;;;;5000172;28;20184;-91
2022/07/30 05:41:59;;;;;;;0.10;0.10;;;18.60;99.90;;;;;;5019102;28;20615;-90
2022/07/30 05:44:25;;;;;;;0.10;0.10;;;18.80;99.90;;;;;;5027773;28;20206;-94
2022/07/30 05:46:51;;;;;;;0.10;0.00;;;18.90;99.90;;;;;;5030980;28;20180;-92
2022/07/30 05:49:17;;;;;;;0.10;0.10;;;19.10;99.90;;;;;;5021074;28;20187;-92
2022/07/30 05:51:42;;;;;;;0.10;0.00;;;19.30;99.90;;;;;;5029107;28;20221;-90
2022/07/30 05:54:08;;;;;;;0.10;0.10;;;19.30;99.90;;;;;;5029387;28;20632;-91
2022/07/30 05:56:34;;;;;;;0.10;0.10;;;19.40;99.90;;;;;;5027208;28;20199;-91
2022/07/30 05:59:00;;;;;;;0.10;0.00;;;19.60;99.90;;;;;;5027115;28;20273;-91
2022/07/30 06:01:26;;;;;;;0.10;0.00;;;19.80;99.90;;;;;;5009165;28;20435;-91
2022/07/30 06:03:51;;;;;;;0.10;0.10;;;19.90;99.90;;;;;;5022511;28;20195;-93
2022/07/30 06:06:17;;;;;;;0.10;0.00;;;19.80;99.90;;;;;;5028835;28;20192;-90
2022/07/30 06:08:43;;;;;;;0.10;0.10;;;19.80;99.90;;;;;;5028534;28;20695;-90
2022/07/30 06:11:08;;;;;;;0.10;0.10;;;19.80;99.90;;;;;;5027780;28;20187;-93
2022/07/30 06:13:34;;;;;;;0.10;0.00;;;19.90;99.90;;;;;;5032908;28;20481;-89
2022/07/30 06:16:00;;;;;;;0.10;0.00;;;19.70;99.90;;;;;;5036575;28;20262;-90
2022/07/30 06:18:25;;;;;;;0.10;0.10;;;19.70;99.90;;;;;;5036100;28;20521;-92
2022/07/30 06:20:53;;;;;;;0.10;0.00;;;19.70;99.90;;;;;;5033649;28;20600;-91
2022/07/30 06:23:19;;;;;;;0.10;0.10;;;19.80;99.90;;;;;;5010306;28;20183;-92
2022/07/30 06:25:47;;;;;;;0.10;0.10;;;19.80;99.90;;;;;;5009665;28;20450;-90
2022/07/30 06:28:13;;;;;;;0.10;0.00;;;19.90;99.90;;;;;;5030689;28;20446;-90
2022/07/30 06:30:39;;;;;;;0.10;0.00;;;19.80;99.90;;;;;;5026293;28;20830;-89
2022/07/30 06:33:05;;;;;;;0.10;0.10;;;19.90;99.90;;;;;;5022384;28;20489;-89
2022/07/30 06:35:31;;;;;;;0.10;0.00;;;20.00;99.90;;;;;;5024321;28;20445;-90
2022/07/30 06:37:56;;;;;;;0.10;0.07;;;20.00;99.90;;;;;;5009557;28;20191;-90
2022/07/30 06:40:22;;;;;;;0.10;0.00;;;20.10;99.90;;;;;;5010158;28;20800;-88
2022/07/30 06:42:47;;;;;;;0.10;0.00;;;20.00;99.90;;;;;;5024338;28;20195;-89
2022/07/30 06:45:13;;;;;;;0.10;0.00;;;19.90;99.90;;;;;;5031103;28;20215;-90
2022/07/30 06:47:38;;;;;;;0.10;0.00;;;20.00;99.90;;;;;;5016220;28;20203;-87
2022/07/30 06:50:05;;;;;;;0.10;0.10;;;20.10;99.90;;;;;;5012218;28;20195;-87
2022/07/30 06:52:30;;;;;;;0.10;0.10;;;20.20;99.90;;;;;;5024926;28;20221;-88
2022/07/30 06:54:55;;;;;;;0.10;0.00;;;20.10;99.90;;;;;;5009146;28;20453;-89
2022/07/30 06:57:21;;;;;;;0.10;0.00;;;20.20;99.90;;;;;;5034635;28;20248;-89
2022/07/30 06:59:46;;;;;;;0.10;0.00;;;20.40;99.90;;;;;;5015208;28;20232;-88
2022/07/30 07:02:12;;;;;;;0.10;0.10;;;20.40;99.90;;;;;;4989249;28;20195;-87
2022/07/30 07:04:37;;;;;;;0.10;0.00;;;20.50;99.90;;;;;;4998469;28;20197;-88
2022/07/30 07:07:03;;;;;;;0.10;0.07;;;20.60;99.90;;;;;;5011028;28;20187;-91
2022/07/30 07:09:28;;;;;;;0.10;0.00;;;20.80;99.90;;;;;;5009908;28;20977;-87
2022/07/30 07:11:54;;;;;;;0.10;0.10;;;20.80;99.90;;;;;;4991605;28;20217;-86
2022/07/30 07:14:19;;;;;;;0.10;0.00;;;20.90;99.90;;;;;;4990330;28;20660;-87
2022/07/30 07:16:47;;;;;;;0.10;0.00;;;21.10;99.90;;;;;;5001213;28;20267;-87
2022/07/30 07:19:13;;;;;;;0.10;0.00;;;21.30;99.90;;;;;;4998748;28;20573;-87
2022/07/30 07:21:39;;;;;;;0.10;0.00;;;21.40;99.90;;;;;;4999057;28;20447;-86
2022/07/30 07:24:04;;;;;;;0.10;0.10;;;21.60;99.90;;;;;;5001271;28;20203;-88
2022/07/30 07:26:30;;;;;;;0.10;0.00;;;21.80;99.90;;;;;;5008552;28;20215;-87
2022/07/30 07:28:56;;;;;;;0.10;0.00;;;22.00;99.90;;;;;;5006634;28;20191;-86
2022/07/30 07:31:21;;;;;;;0.10;0.00;;;22.10;99.90;;;;;;5018826;28;20202;-87
2022/07/30 07:33:47;;;;;;;0.10;0.00;;;22.30;99.90;;;;;;5012125;28;20213;-87
2022/07/30 07:36:13;;;;;;;0.10;0.00;;;22.30;99.90;;;;;;4985682;28;20195;-86
2022/07/30 07:38:39;;;;;;;0.10;0.00;;;22.20;99.90;;;;;;5018417;28;20276;-86
2022/07/30 07:41:05;;;;;;;0.10;0.00;;;22.10;99.90;;;;;;4989376;28;20937;-89
2022/07/30 07:43:30;;;;;;;0.10;0.00;;;22.10;99.90;;;;;;5016208;28;20191;-87
2022/07/30 07:45:56;;;;;;;0.10;0.00;;;22.00;99.90;;;;;;5007940;28;20207;-87
2022/07/30 07:48:22;;;;;;;0.10;0.00;;;21.90;99.90;;;;;;5007648;28;20765;-90
2022/07/30 07:50:47;;;;;;;0.10;0.00;;;21.70;99.90;;;;;;4999471;28;20833;-89
2022/07/30 07:53:13;;;;;;;0.10;0.00;;;21.70;99.90;;;;;;5023006;28;20231;-86
2022/07/30 07:55:39;;;;;;;0.10;0.00;;;21.70;99.90;;;;;;5020077;28;20200;-89
2022/07/30 07:58:04;;;;;;;0.10;0.00;;;21.80;99.90;;;;;;4999265;28;20192;-89
2022/07/30 08:00:30;;;;;;;0.10;0.00;;;21.90;99.90;;;;;;5001577;28;20477;-86
2022/07/30 08:02:56;;;;;;;0.10;0.00;;;21.80;99.90;;;;;;5000699;28;20196;-86
2022/07/30 08:05:22;;;;;;;0.10;0.00;;;21.80;99.90;;;;;;4995742;28;20644;-88
2022/07/30 08:07:47;;;;;;;0.10;0.00;;;21.90;99.90;;;;;;4992236;28;20456;-90
2022/07/30 08:10:14;;;;;;;0.10;0.00;;;21.90;99.90;;;;;;5007614;28;20261;-88
2022/07/30 08:12:40;;;;;;;0.10;0.00;;;21.70;99.90;;;;;;5009769;28;20231;-89
2022/07/30 08:15:08;;;;;;;0.10;0.00;;;21.70;99.90;;;;;;5006749;28;20963;-87
2022/07/30 08:17:42;;;;;;;0.10;0.00;;;21.80;99.90;;;;;;4999157;28;20447;-89
2022/07/30 08:20:08;;;;;;;0.10;0.00;;;21.80;99.90;;;;;;5002213;28;20443;-87
2022/07/30 08:22:34;;;;;;;0.10;0.00;;;21.80;99.90;;;;;;5004989;28;20462;-88
2022/07/30 08:25:00;;;;;;;0.10;0.00;;;21.90;99.90;;;;;;4989867;28;20439;-88
2022/07/30 08:27:25;;;;;;;0.10;0.00;;;22.00;99.90;;;;;;5001820;28;20675;-87
2022/07/30 08:29:51;;;;;;;0.10;0.10;;;22.00;99.90;;;;;;5008700;28;20242;-88
2022/07/30 08:32:16;;;;;;;0.10;0.00;;;22.00;99.90;;;;;;4998893;28;20212;-88
2022/07/30 08:34:42;;;;;;;0.10;0.00;;;22.20;99.90;;;;;;5008261;28;20193;-88
2022/07/30 08:37:09;;;;;;;0.10;0.00;;;22.30;99.90;;;;;;4995393;28;20211;-88
2022/07/30 08:39:34;;;;;;;0.10;0.00;;;22.20;99.90;;;;;;5008891;28;20185;-88
2022/07/30 08:42:01;;;;;;;0.10;0.00;;;22.10;99.90;;;;;;5011091;28;20983;-89
2022/07/30 08:44:28;;;;;;;0.10;0.00;;;22.30;99.90;;;;;;4994432;28;20607;-88
2022/07/30 08:46:55;;;;;;;0.10;0.00;;;22.30;99.90;;;;;;4997293;28;20444;-87
2022/07/30 08:49:22;;;;;;;0.10;0.00;;;22.50;99.90;;;;;;4990596;28;20437;-87
2022/07/30 08:51:51;;;;;;;0.10;0.00;;;22.50;99.90;;;;;;4991727;28;20515;-88
2022/07/30 08:54:18;;;;;;;0.10;0.00;;;22.60;99.90;;;;;;4990171;28;20428;-88
2022/07/30 08:56:44;;;;;;;0.10;0.00;;;22.80;99.90;;;;;;5005874;28;20431;-88
2022/07/30 08:59:10;;;;;;;0.10;0.00;;;22.90;99.90;;;;;;4987663;28;20495;-87
2022/07/30 09:01:35;;;;;;;0.10;0.00;;;23.00;99.90;;;;;;4999030;28;20204;-89
2022/07/30 09:04:01;;;;;;;0.10;0.00;;;23.00;99.90;;;;;;5001354;28;20479;-86
2022/07/30 09:06:27;;;;;;;0.10;0.00;;;23.30;99.90;;;;;;5002653;28;20187;-86
2022/07/30 09:08:53;;;;;;;0.10;0.00;;;23.30;99.90;;;;;;4998711;28;20276;-86
2022/07/30 09:11:19;;;;;;;0.10;0.00;;;23.20;99.90;;;;;;5003377;28;21030;-87
2022/07/30 09:13:44;;;;;;;0.10;0.00;;;23.10;99.90;;;;;;5009313;28;20311;-87
2022/07/30 09:16:22;;;;;;;0.10;0.00;;;22.90;99.90;;;;;;5006843;28;20227;-87
2022/07/30 09:18:49;;;;;;;0.10;0.00;;;23.10;99.90;;;;;;5004794;28;20309;-86
2022/07/30 09:21:24;;;;;;;0.10;0.00;;;23.20;99.90;;;;;;5009210;28;20824;-86
2022/07/30 09:24:00;;;;;;;0.10;0.00;;;23.20;99.90;;;;;;5011393;28;20438;-86
2022/07/30 09:26:26;;;;;;;0.10;0.00;;;23.20;99.90;;;;;;5010472;28;20457;-85
2022/07/30 09:28:52;;;;;;;0.10;0.00;;;23.20;99.90;;;;;;5008492;28;20542;-86
2022/07/30 09:31:18;;;;;;;0.10;0.00;;;23.40;99.90;;;;;;5007885;28;20674;-86
2022/07/30 09:33:46;;;;;;;0.10;0.00;;;23.20;99.90;;;;;;5001933;28;20212;-86
2022/07/30 09:36:14;;;;;;;0.10;0.00;;;23.40;99.90;;;;;;5005428;28;20480;-86
2022/07/30 09:38:50;;;;;;;0.10;0.00;;;23.60;99.90;;;;;;5005877;28;20456;-85
2022/07/30 09:41:18;;;;;;;0.10;0.00;;;23.90;99.90;;;;;;5006818;28;20451;-86
2022/07/30 09:43:51;;;;;;;0.10;0.00;;;24.50;99.90;;;;;;5003835;28;20451;-84
2022/07/30 09:46:17;;;;;;;0.10;0.00;;;25.00;99.90;;;;;;5007499;28;20439;-85
2022/07/30 09:48:47;;;;;;;0.10;0.00;;;25.10;99.90;;;;;;5007931;28;20471;-87
2022/07/30 09:51:12;;;;;;;0.10;0.00;;;25.10;99.90;;;;;;5007999;28;20455;-90
2022/07/30 09:54:00;;;;;;;0.10;0.00;;;24.60;99.90;;;;;;5008825;28;20497;-85
2022/07/30 09:56:27;;;;;;;0.10;0.00;;;24.50;99.90;;;;;;5007574;28;20650;-85
2022/07/30 09:58:53;;;;;;;0.10;0.00;;;24.40;99.90;;;;;;5006782;28;20528;-85
2022/07/30 10:01:19;;;;;;;0.10;0.00;;;24.40;99.90;;;;;;4998784;28;20451;-86
2022/07/30 10:03:45;;;;;;;0.10;0.00;;;24.40;99.90;;;;;;5002525;28;20204;-85
2022/07/30 10:06:11;;;;;;;0.10;0.10;;;24.20;99.90;;;;;;5003399;28;20455;-86
2022/07/30 10:08:49;;;;;;;0.10;0.00;;;24.10;99.90;;;;;;5010185;28;20240;-86
2022/07/30 10:11:21;;;;;;;0.10;0.00;;;24.20;99.90;;;;;;5007171;28;20472;-86
2022/07/30 10:13:48;;;;;;;0.10;0.00;;;24.10;99.90;;;;;;4995234;28;20480;-88
2022/07/30 10:16:14;;;;;;;0.10;0.00;;;24.10;99.90;;;;;;5007347;28;20439;-89
2022/07/30 10:18:41;;;;;;;0.10;0.00;;;24.10;99.90;;;;;;5005095;28;20454;-89
2022/07/30 10:21:07;;;;;;;0.10;0.00;;;24.10;99.90;;;;;;5000021;28;20220;-91
2022/07/30 10:23:34;;;;;;;0.10;0.00;;;24.10;99.90;;;;;;5012750;28;21002;-91
2022/07/30 10:26:00;;;;;;;0.10;0.00;;;24.20;99.90;;;;;;5012520;28;20279;-89
2022/07/30 10:28:27;;;;;;;0.10;0.00;;;24.30;99.90;;;;;;5004708;28;20526;-87
2022/07/30 10:30:54;;;;;;;0.10;0.00;;;24.30;99.90;;;;;;5005040;28;20203;-91
2022/07/30 10:33:26;;;;;;;0.10;0.00;;;24.40;99.90;;;;;;5008538;28;20497;-89
2022/07/30 10:35:52;;;;;;;0.10;0.00;;;24.50;99.90;;;;;;5006268;28;21006;-89
2022/07/30 10:38:21;;;;;;;0.10;0.00;;;24.40;99.90;;;;;;5009997;28;20467;-88
2022/07/30 10:40:55;;;;;;;0.10;0.00;;;24.30;99.90;;;;;;5003586;28;20192;-89
2022/07/30 10:43:34;;;;;;;0.10;0.00;;;24.40;99.90;;;;;;5005514;28;20432;-88
2022/07/30 10:46:21;;;;;;;0.10;0.00;;;24.50;99.90;;;;;;5003037;28;20457;-91
2022/07/30 10:48:47;;;;;;;0.10;0.00;;;24.80;99.90;;;;;;5006109;28;20458;-88
2022/07/30 10:51:12;;;;;;;0.10;0.00;;;24.70;99.90;;;;;;5005407;28;20447;-87
2022/07/30 10:53:47;;;;;;;0.10;0.00;;;24.80;99.90;;;;;;5007584;28;20231;-88
2022/07/30 10:56:22;;;;;;;0.10;0.00;;;25.00;99.90;;;;;;5005450;28;20188;-87
2022/07/30 10:59:07;;;;;;;0.10;0.00;;;24.90;99.90;;;;;;5008575;28;20843;-88
2022/07/30 11:01:48;;;;;;;0.10;0.00;;;24.90;99.90;;;;;;5000120;28;20901;-88
2022/07/30 11:04:19;;;;;;;0.10;0.00;;;25.00;99.90;;;;;;5018048;28;21003;-91
2022/07/30 11:06:45;;;;;;;0.10;0.00;;;25.30;99.90;;;;;;5014910;28;20460;-89
2022/07/30 11:09:36;;;;;;;0.10;0.00;;;25.60;99.90;;;;;;4998099;28;20879;-87
2022/07/30 11:12:03;;;;;;;0.10;0.00;;;25.80;99.90;;;;;;5013844;28;20876;-91
2022/07/30 11:14:47;;;;;;;0.10;0.00;;;25.60;99.90;;;;;;5001757;28;20462;-86
2022/07/30 11:17:15;;;;;;;0.10;0.00;;;25.40;99.90;;;;;;4988750;28;20530;-87
2022/07/30 11:20:08;;;;;;;0.10;0.00;;;25.40;99.90;;;;;;5012500;28;20470;-88
2022/07/30 11:22:43;;;;;;;0.10;0.00;;;25.40;99.90;;;;;;5009775;28;21206;-88
2022/07/30 11:25:21;;;;;;;0.10;0.00;;;25.40;99.90;;;;;;4994978;28;20479;-87
2022/07/30 11:27:49;;;;;;;0.10;0.00;;;25.30;99.90;;;;;;5011749;28;20451;-87
2022/07/30 11:30:14;;;;;;;0.10;0.00;;;25.40;99.90;;;;;;5004596;28;20451;-88
2022/07/30 11:32:41;;;;;;;0.10;0.00;;;26.10;99.90;;;;;;5011548;28;20845;-87
2022/07/30 11:35:24;;;;;;;0.10;0.00;;;27.30;99.90;;;;;;5013374;28;20268;-87
2022/07/30 11:38:07;;;;;;;0.10;0.00;;;27.10;99.90;;;;;;5006206;28;20487;-88
2022/07/30 11:40:56;;;;;;;0.10;0.00;;;27.00;99.90;;;;;;5002498;28;20440;-89
2022/07/30 11:43:32;;;;;;;0.10;0.00;;;26.70;99.90;;;;;;4997040;28;20806;-89
2022/07/30 11:46:13;;;;;;;0.10;0.00;;;26.60;99.90;;;;;;5002891;28;20439;-89
2022/07/30 11:48:41;;;;;;;0.10;0.00;;;26.70;99.90;;;;;;5005307;28;20440;-87
2022/07/30 11:51:07;;;;;;;0.10;0.00;;;26.10;99.90;;;;;;5012302;28;20491;-87
2022/07/30 11:53:33;;;;;;;0.10;0.00;;;26.10;99.90;;;;;;5009686;28;20544;-86
2022/07/30 11:56:01;;;;;;;0.10;0.00;;;26.80;99.90;;;;;;5024472;28;20990;-87
2022/07/30 11:58:38;;;;;;;0.10;0.00;;;28.30;99.90;;;;;;5013039;28;20502;-89
2022/07/30 12:01:14;;;;;;;0.10;0.00;;;28.90;99.90;;;;;;5015096;28;20431;-90
2022/07/30 12:03:44;;;;;;;0.10;0.00;;;28.90;99.90;;;;;;4997369;28;20522;-91
2022/07/30 12:06:16;;;;;;;0.10;0.00;;;28.60;99.90;;;;;;5002113;28;20439;-94
2022/07/30 12:08:46;;;;;;;0.10;0.00;;;27.50;99.90;;;;;;5009579;28;20525;-91
2022/07/30 12:11:12;;;;;;;0.10;0.00;;;27.80;99.90;;;;;;4988865;28;20608;-90
2022/07/30 12:13:44;;;;;;;0.10;0.00;;;28.70;99.90;;;;;;5002212;28;20538;-86
2022/07/30 12:16:11;;;;;;;0.10;0.00;;;29.80;99.90;;;;;;5007290;28;20554;-88
2022/07/30 12:18:37;;;;;;;0.10;0.00;;;29.90;99.90;;;;;;5003700;28;20436;-92
2022/07/30 12:21:07;;;;;;;0.10;0.00;;;28.50;99.90;;;;;;5010131;28;20446;-87
2022/07/30 12:23:33;;;;;;;0.10;0.00;;;27.50;99.90;;;;;;5011579;28;20191;-90
2022/07/30 12:25:59;;;;;;;0.10;0.00;;;27.00;99.90;;;;;;4989437;28;20440;-94
2022/07/30 12:28:27;;;;;;;0.10;0.00;;;27.30;99.90;;;;;;5005834;28;20458;-92
2022/07/30 12:30:54;;;;;;;0.10;0.00;;;27.00;99.90;;;;;;5008858;28;20188;-87
2022/07/30 12:33:20;;;;;;;0.10;0.00;;;26.90;99.90;;;;;;4998656;28;20491;-86
2022/07/30 12:35:59;;;;;;;0.10;0.00;;;26.90;99.90;;;;;;4998557;28;20442;-89
2022/07/30 12:38:27;;;;;;;0.10;0.00;;;26.20;99.90;;;;;;5006245;28;20462;-92
2022/07/30 12:41:10;;;;;;;0.10;0.00;;;25.70;99.90;;;;;;5004300;28;20439;-89
2022/07/30 12:43:54;;;;;;;0.10;0.00;;;25.40;99.90;;;;;;4991137;28;20466;-92
2022/07/30 12:46:22;;;;;;;0.10;0.00;;;25.50;99.90;;;;;;5010942;28;20451;-87
2022/07/30 12:48:49;;;;;;;0.10;0.00;;;25.50;99.90;;;;;;5010625;28;20500;-90
2022/07/30 12:51:15;;;;;;;0.10;0.00;;;25.30;99.90;;;;;;5002280;28;20928;-89